Tillman, SC

2:19 PM EST on February 12, 2016 (GMT -0500)
1 Mi. West of Great Swamp Baptist Church | | Change Station
CLOSE
Current Station
Personal Weather Station
Location: Ridgeland, SC
Elevation: 59 ft
Nearby Weather Stations
Active Advisory: Flood Warning

Elev 59 ft 32.50 °N, 81.04 °W | Updated 1 second ago

Overcast
Overcast
62.1 °F
Feels Like 62.1 °F
N
1.1
Wind Variable Wind from SW
Gusts 9.0 mph

Today
High -- | Low -- °F
--% Chance of Precip.
Yesterday
High -- | Low -- °F
Precip. -- in
Pressure 30.04 in
Visibility 10.0 miles
Clouds Few 2500 ft
Mostly Cloudy 3300 ft
Mostly Cloudy 4400 ft
Dew Point 54 °F
Humidity 76%
Rainfall 0.00 in
Snow Depth Not available.
7:10 AM 6:07 PM
Waxing Crescent, 23% visible
METAR KNBC 121856Z 33008KT 10SM FEW025 BKN033 BKN044 16/11 A3003 RMK AO2 SLP170 T01560111
Pressure 30.04 in
Visibility 10.0 miles
Clouds Few 2500 ft
Mostly Cloudy 3300 ft
Mostly Cloudy 4400 ft
Dew Point 54 °F
Humidity 76%
Rainfall 0.00 in
Snow Depth Not available.
7:10 AM 6:07 PM
Waxing Crescent, 23% visible
METAR KNBC 121856Z 33008KT 10SM FEW025 BKN033 BKN044 16/11 A3003 RMK AO2 SLP170 T01560111

10-Day Weather Forecast

Almanac

Astronomy

Feb. 12, 2016 Rise Set
Actual Time
Civil Twilight
Nautical Twilight
Astronomical Twilight
Moon
Length of Visible Light
Length of Day
Tomorrow will be .
, % of the Moon is Illuminated

Today's Extremes

State Highs State Lows

Community

WunderPhotos

Upload Photos

1,892,376 photos uploaded!

WunderBlog® & News

Nearby

Air Quality

  Air Quality AQ Index Pollutant
Not available.

Snow Depth

Station Depth Elevation

Earthquake Activity

City Distance Mag. Time & Date
Minimum magnitude displayed is 2.5.

Coastal Water Temperatures

Place Temperature

Stations

Nearby Weather Stations

Station Location Temp. Windchill Dew Point Humidity Wind Precip. Elev Updated Type
                   

Watches & Warnings

Flood Warning
Issued: 9:41 AM EST Feb. 12, 2016 – National Weather Service

The Flood Warning continues for
the Savannah River near Clyo.
* At 9 am Friday the stage was 14.8 feet.
* Flood stage is 11.0 feet.
* Minor flooding is occurring.
* Forecast, the river will remain nearly steady or slowly fall.
* At 14.5 feet, the bottom floor of several riverfront homes along Tom
goethe Road begins to flood.


Lat... Lon 3273 8145 3276 8137 3264 8136 3249 8117
          3246 8125 3261 8144